createdAt,value
2016-01-23T00:00:11.444Z,1014.48
2016-01-23T00:01:11.494Z,1014.41
2016-01-23T00:02:11.559Z,1014.43
2016-01-23T00:03:11.609Z,1014.41
2016-01-23T00:04:11.660Z,1014.41
2016-01-23T00:05:11.710Z,1014.37
2016-01-23T00:06:11.775Z,1014.42
2016-01-23T00:07:11.827Z,1014.43
2016-01-23T00:08:11.880Z,1014.48
2016-01-23T00:09:11.944Z,1014.47
2016-01-23T00:10:11.994Z,1014.46
2016-01-23T00:11:12.046Z,1014.46
2016-01-23T00:12:12.096Z,1014.48
2016-01-23T00:13:12.161Z,1014.49
2016-01-23T00:14:12.212Z,1014.53
2016-01-23T00:15:12.264Z,1014.56
2016-01-23T00:16:12.314Z,1014.57
2016-01-23T00:17:12.381Z,1014.57
2016-01-23T00:18:12.435Z,1014.52
2016-01-23T00:19:12.490Z,1014.59
2016-01-23T00:20:12.546Z,1014.56
2016-01-23T00:21:12.594Z,1014.61
2016-01-23T00:22:12.645Z,1014.62
2016-01-23T00:23:12.695Z,1014.65
2016-01-23T00:24:12.762Z,1014.63
2016-01-23T00:25:12.812Z,1014.64
2016-01-23T00:26:12.866Z,1014.63
2016-01-23T00:27:12.918Z,1014.64
2016-01-23T00:28:12.985Z,1014.68
2016-01-23T00:29:13.035Z,1014.7
2016-01-23T00:30:13.092Z,1014.69
2016-01-23T00:31:13.143Z,1014.78
2016-01-23T00:32:13.193Z,1014.73
2016-01-23T00:33:13.243Z,1014.76
2016-01-23T00:34:13.308Z,1014.81
2016-01-23T00:35:13.359Z,1014.75
2016-01-23T00:36:13.410Z,1014.76
2016-01-23T00:37:13.475Z,1014.77
2016-01-23T00:38:13.527Z,1014.77
2016-01-23T00:39:13.581Z,1014.81
2016-01-23T00:40:13.631Z,1014.74
2016-01-23T00:41:13.696Z,1014.73
2016-01-23T00:42:13.745Z,1014.71
2016-01-23T00:43:13.796Z,1014.68
2016-01-23T00:44:13.862Z,1014.73
2016-01-23T00:45:13.911Z,1014.68
2016-01-23T00:46:13.961Z,1014.73
2016-01-23T00:47:14.012Z,1014.76
2016-01-23T00:48:14.079Z,1014.73
2016-01-23T00:49:14.130Z,1014.75
2016-01-23T00:50:14.180Z,1014.72
2016-01-23T00:51:14.233Z,1014.73
2016-01-23T00:52:14.298Z,1014.72
2016-01-23T00:53:14.346Z,1014.68
2016-01-23T00:54:14.398Z,1014.67
2016-01-23T00:55:14.459Z,1014.68
2016-01-23T00:56:14.513Z,1014.66
2016-01-23T00:57:14.563Z,1014.6
2016-01-23T00:58:14.629Z,1014.61
2016-01-23T00:59:14.680Z,1014.65
2016-01-23T01:00:14.730Z,1014.67
2016-01-23T01:01:14.796Z,1014.68
2016-01-23T01:02:14.847Z,1014.64
2016-01-23T01:03:14.897Z,1014.52
2016-01-23T01:04:14.946Z,1014.53
2016-01-23T01:05:15.010Z,1014.62
2016-01-23T01:06:15.061Z,1014.68
2016-01-23T01:07:15.115Z,1014.68
2016-01-23T01:08:15.166Z,1014.66
2016-01-23T01:09:15.231Z,1014.63
2016-01-23T01:10:15.285Z,1014.59
2016-01-23T01:11:15.335Z,1014.61
2016-01-23T01:12:15.386Z,1014.68
2016-01-23T01:13:15.439Z,1014.7
2016-01-23T01:14:15.504Z,1014.72
2016-01-23T01:15:15.554Z,1014.63
2016-01-23T01:16:15.605Z,1014.71
2016-01-23T01:17:15.670Z,1014.73
2016-01-23T01:18:15.721Z,1014.75
2016-01-23T01:19:15.772Z,1014.78
2016-01-23T01:20:15.822Z,1014.81
2016-01-23T01:21:15.888Z,1014.84
2016-01-23T01:22:15.954Z,1014.86
2016-01-23T01:23:15.992Z,1014.86
2016-01-23T01:24:16.042Z,1014.83
2016-01-23T01:25:16.106Z,1014.9
2016-01-23T01:26:16.159Z,1014.9
2016-01-23T01:27:16.209Z,1014.88
2016-01-23T01:28:16.275Z,1014.85
2016-01-23T01:29:16.325Z,1014.97
2016-01-23T01:30:16.376Z,1015.01
2016-01-23T01:31:16.443Z,1014.99
2016-01-23T01:32:16.492Z,1015.07
2016-01-23T01:33:16.544Z,1014.89
2016-01-23T01:34:16.593Z,1015.05
2016-01-23T01:35:16.660Z,1015.08
2016-01-23T01:36:16.711Z,1015.23
2016-01-23T01:37:16.762Z,1015.19
2016-01-23T01:38:16.813Z,1015.14
2016-01-23T01:39:16.880Z,1015.25
2016-01-23T01:40:16.930Z,1015.25
2016-01-23T01:41:16.982Z,1015.36
2016-01-23T01:42:17.036Z,1015.32
2016-01-23T01:43:17.086Z,1015.19
2016-01-23T01:44:17.339Z,1015.14
2016-01-23T01:45:17.203Z,1015.13
2016-01-23T01:46:17.254Z,1015.21
2016-01-23T01:47:17.320Z,1015.27
2016-01-23T01:48:17.367Z,1015.27
2016-01-23T01:49:17.418Z,1015.3
2016-01-23T01:50:17.484Z,1015.27
2016-01-23T01:51:17.538Z,1015.34
2016-01-23T01:52:17.589Z,1015.32
2016-01-23T01:53:17.655Z,1015.27
2016-01-23T01:54:17.706Z,1015.3
2016-01-23T01:55:17.749Z,1015.32
2016-01-23T01:56:17.815Z,1015.33
2016-01-23T01:57:17.864Z,1015.36
2016-01-23T01:58:17.914Z,1015.35
2016-01-23T01:59:17.981Z,1015.36
2016-01-23T02:00:18.032Z,1015.37
2016-01-23T02:01:18.083Z,1015.44
2016-01-23T02:02:18.149Z,1015.4
2016-01-23T02:03:18.200Z,1015.36
2016-01-23T02:04:18.251Z,1015.4
2016-01-23T02:05:18.302Z,1015.43
2016-01-23T02:06:18.370Z,1015.5
2016-01-23T02:07:18.419Z,1015.59
2016-01-23T02:08:18.470Z,1015.61
2016-01-23T02:09:18.537Z,1015.56
2016-01-23T02:10:18.590Z,1015.56
2016-01-23T02:11:18.644Z,1015.56
2016-01-23T02:12:18.695Z,1015.58
2016-01-23T02:13:18.747Z,1015.57
2016-01-23T02:14:18.800Z,1015.65
2016-01-23T02:15:18.866Z,1015.63
2016-01-23T02:16:18.916Z,1015.6
2016-01-23T02:17:18.967Z,1015.6
2016-01-23T02:18:19.032Z,1015.6
2016-01-23T02:19:19.082Z,1015.59
2016-01-23T02:20:19.147Z,1015.61
2016-01-23T02:21:19.185Z,1015.62
2016-01-23T02:22:19.252Z,1015.63
2016-01-23T02:23:19.301Z,1015.66
2016-01-23T02:24:19.354Z,1015.6
2016-01-23T02:25:19.422Z,1015.68
2016-01-23T02:26:19.474Z,1015.69
2016-01-23T02:27:19.526Z,1015.71
2016-01-23T02:28:19.577Z,1015.73
2016-01-23T02:29:19.642Z,1015.74
2016-01-23T02:30:19.691Z,1015.71
2016-01-23T02:31:19.742Z,1015.7
2016-01-23T02:32:19.793Z,1015.68
2016-01-23T02:33:19.860Z,1015.67
2016-01-23T02:34:19.909Z,1015.73
2016-01-23T02:35:19.963Z,1015.72
2016-01-23T02:36:20.015Z,1015.72
2016-01-23T02:37:20.082Z,1015.72
2016-01-23T02:38:20.131Z,1015.72
2016-01-23T02:39:20.199Z,1015.75
2016-01-23T02:40:20.249Z,1015.77
2016-01-23T02:41:20.302Z,1015.69
2016-01-23T02:42:20.352Z,1015.77
2016-01-23T02:43:20.402Z,1015.81
2016-01-23T02:44:20.470Z,1015.88
2016-01-23T02:45:20.522Z,1015.89
2016-01-23T02:46:20.571Z,1015.87
2016-01-23T02:47:20.622Z,1015.87
2016-01-23T02:48:20.689Z,1015.88
2016-01-23T02:49:20.740Z,1015.92
2016-01-23T02:50:20.792Z,1015.92
2016-01-23T02:51:20.858Z,1015.87
2016-01-23T02:52:20.908Z,1015.87
2016-01-23T02:53:20.960Z,1015.86
2016-01-23T02:54:21.026Z,1015.84
2016-01-23T02:55:21.060Z,1015.88
2016-01-23T02:56:21.127Z,1015.92
2016-01-23T02:57:21.178Z,1015.9
2016-01-23T02:58:21.244Z,1015.94
2016-01-23T02:59:21.295Z,1015.88
2016-01-23T03:00:21.346Z,1015.92
2016-01-23T03:01:21.397Z,1015.9
2016-01-23T03:02:21.462Z,1015.92
2016-01-23T03:03:21.516Z,1015.98
2016-01-23T03:04:21.567Z,1015.96
2016-01-23T03:05:21.618Z,1016
2016-01-23T03:06:21.669Z,1016.03
2016-01-23T03:07:21.736Z,1016.05
2016-01-23T03:08:21.787Z,1016.11
2016-01-23T03:09:21.836Z,1016.14
2016-01-23T03:10:21.888Z,1016.16
2016-01-23T03:11:21.955Z,1016.17
2016-01-23T03:12:22.005Z,1016.22
2016-01-23T03:13:22.073Z,1016.22
2016-01-23T03:14:22.124Z,1016.18
2016-01-23T03:15:22.177Z,1016.23
2016-01-23T03:16:22.227Z,1016.27
2016-01-23T03:17:22.293Z,1016.25
2016-01-23T03:18:22.333Z,1016.29
2016-01-23T03:19:22.401Z,1016.35
2016-01-23T03:20:22.450Z,1016.44
2016-01-23T03:21:22.500Z,1016.35
2016-01-23T03:22:22.553Z,1016.37
2016-01-23T03:23:22.620Z,1016.35
2016-01-23T03:24:22.668Z,1016.48
2016-01-23T03:25:22.734Z,1016.56
2016-01-23T03:26:22.789Z,1016.6
2016-01-23T03:27:22.840Z,1016.61
2016-01-23T03:28:22.888Z,1016.59
2016-01-23T03:29:22.957Z,1016.62
2016-01-23T03:30:23.011Z,1016.64
2016-01-23T03:31:23.062Z,1016.62
2016-01-23T03:32:23.111Z,1016.58
2016-01-23T03:33:23.178Z,1016.6
2016-01-23T03:34:23.229Z,1016.62
2016-01-23T03:35:23.278Z,1016.61
2016-01-23T03:36:23.344Z,1016.59
2016-01-23T03:37:23.394Z,1016.64
2016-01-23T03:38:23.445Z,1016.69
2016-01-23T03:39:23.510Z,1016.71
2016-01-23T03:40:23.561Z,1016.76
2016-01-23T03:41:23.612Z,1016.75
2016-01-23T03:42:23.665Z,1016.77
2016-01-23T03:43:23.717Z,1016.78
2016-01-23T03:44:23.783Z,1016.8
2016-01-23T03:45:23.833Z,1016.85
2016-01-23T03:46:23.898Z,1016.84
2016-01-23T03:47:23.950Z,1016.81
2016-01-23T03:48:24.005Z,1016.84
2016-01-23T03:49:24.057Z,1016.9
2016-01-23T03:50:24.311Z,1016.94
2016-01-23T03:51:24.173Z,1016.93
2016-01-23T03:52:24.223Z,1016.89
2016-01-23T03:53:24.273Z,1016.96
2016-01-23T03:54:24.332Z,1016.99
2016-01-23T03:55:24.399Z,1017.03
2016-01-23T03:56:24.434Z,1017.04
2016-01-23T03:57:24.500Z,1017.01
2016-01-23T03:58:24.549Z,1017.03
2016-01-23T03:59:24.614Z,1017.09
2016-01-23T04:00:24.664Z,1017.07
2016-01-23T04:01:24.715Z,1017.02
2016-01-23T04:02:24.781Z,1017.05
2016-01-23T04:03:24.831Z,1017.11
2016-01-23T04:04:24.881Z,1017.21
2016-01-23T04:05:24.947Z,1017.16
2016-01-23T04:06:24.998Z,1017.16
2016-01-23T04:07:25.048Z,1017.15
2016-01-23T04:08:25.113Z,1017.17
2016-01-23T04:09:25.162Z,1017.15
2016-01-23T04:10:25.213Z,1017.15
2016-01-23T04:11:25.281Z,1017.14
2016-01-23T04:12:25.331Z,1017.11
2016-01-23T04:13:25.382Z,1017.09
2016-01-23T04:14:25.450Z,1017.16
2016-01-23T04:15:25.499Z,1017.19
2016-01-23T04:16:25.550Z,1017.24
2016-01-23T04:17:25.600Z,1017.26
2016-01-23T04:18:25.666Z,1017.29
2016-01-23T04:19:25.715Z,1017.27
2016-01-23T04:20:25.780Z,1017.22
2016-01-23T04:21:25.831Z,1017.21
2016-01-23T04:22:25.882Z,1017.21
2016-01-23T04:23:25.932Z,1017.29
2016-01-23T04:24:25.988Z,1017.32
2016-01-23T04:25:26.055Z,1017.26
2016-01-23T04:26:26.105Z,1017.23
2016-01-23T04:27:26.155Z,1017.21
2016-01-23T04:28:26.223Z,1017.22
2016-01-23T04:29:26.274Z,1017.22
2016-01-23T04:30:26.324Z,1017.26
2016-01-23T04:31:26.388Z,1017.29
2016-01-23T04:32:26.440Z,1017.32
2016-01-23T04:33:26.489Z,1017.35
2016-01-23T04:34:26.556Z,1017.36
2016-01-23T04:35:26.606Z,1017.39
2016-01-23T04:36:26.656Z,1017.37
2016-01-23T04:37:26.723Z,1017.42
2016-01-23T04:38:26.772Z,1017.43
2016-01-23T04:39:26.853Z,1017.49
2016-01-23T04:40:26.888Z,1017.49
2016-01-23T04:41:26.941Z,1017.52
2016-01-23T04:42:26.990Z,1017.51
2016-01-23T04:43:27.040Z,1017.5
2016-01-23T04:44:27.106Z,1017.53
2016-01-23T04:45:27.155Z,1017.54
2016-01-23T04:46:27.220Z,1017.57
2016-01-23T04:47:27.272Z,1017.54
2016-01-23T04:48:27.323Z,1017.58
2016-01-23T04:49:27.388Z,1017.69
2016-01-23T04:50:27.437Z,1017.7
2016-01-23T04:51:27.486Z,1017.7
2016-01-23T04:52:27.557Z,1017.75
2016-01-23T04:53:27.607Z,1017.82
2016-01-23T04:54:27.658Z,1017.85
2016-01-23T04:55:27.708Z,1017.87
2016-01-23T04:56:27.775Z,1017.88
2016-01-23T04:57:27.824Z,1017.89
2016-01-23T04:58:27.877Z,1017.86
2016-01-23T04:59:27.944Z,1017.88
2016-01-23T05:00:27.993Z,1017.96
2016-01-23T05:01:28.045Z,1017.92
2016-01-23T05:02:28.110Z,1017.95
2016-01-23T05:03:28.161Z,1017.98
2016-01-23T05:04:28.210Z,1017.97
2016-01-23T05:05:28.275Z,1017.95
2016-01-23T05:06:28.327Z,1018
2016-01-23T05:07:28.377Z,1018
2016-01-23T05:08:28.427Z,1018
2016-01-23T05:09:28.495Z,1018.01
2016-01-23T05:10:28.547Z,1017.98
2016-01-23T05:11:28.596Z,1018
2016-01-23T05:12:28.663Z,1017.98
2016-01-23T05:13:28.713Z,1018.03
2016-01-23T05:14:28.763Z,1018.05
2016-01-23T05:15:28.832Z,1018.05
2016-01-23T05:16:28.882Z,1018.05
2016-01-23T05:17:28.947Z,1018.06
2016-01-23T05:18:29.013Z,1018.11
2016-01-23T05:19:29.047Z,1018.15
2016-01-23T05:20:29.099Z,1018.17
2016-01-23T05:21:29.150Z,1018.18
2016-01-23T05:22:29.216Z,1018.25
2016-01-23T05:23:29.267Z,1018.31
2016-01-23T05:24:29.317Z,1018.28
2016-01-23T05:25:29.382Z,1018.27
2016-01-23T05:26:29.434Z,1018.31
2016-01-23T05:27:29.485Z,1018.36
2016-01-23T05:28:29.551Z,1018.34
2016-01-23T05:29:29.600Z,1018.4
2016-01-23T05:30:29.667Z,1018.44
2016-01-23T05:31:29.717Z,1018.41
2016-01-23T05:32:29.768Z,1018.42
2016-01-23T05:33:29.819Z,1018.45
2016-01-23T05:34:29.886Z,1018.48
2016-01-23T05:35:29.935Z,1018.5
2016-01-23T05:36:29.986Z,1018.53
2016-01-23T05:37:30.053Z,1018.59
2016-01-23T05:38:30.103Z,1018.64
2016-01-23T05:39:30.153Z,1018.69
2016-01-23T05:40:30.218Z,1018.72
2016-01-23T05:41:30.269Z,1018.75
2016-01-23T05:42:30.333Z,1018.74
2016-01-23T05:43:30.395Z,1018.72
2016-01-23T05:44:30.418Z,1018.81
2016-01-23T05:45:36.401Z,1018.84
2016-01-23T05:46:30.520Z,1018.9
2016-01-23T05:47:30.585Z,1018.93
2016-01-23T05:48:30.637Z,1018.95
2016-01-23T05:49:30.702Z,1018.98
2016-01-23T05:50:30.752Z,1018.99
2016-01-23T05:51:30.819Z,1019.06
2016-01-23T05:52:30.854Z,1019.13
2016-01-23T05:53:30.919Z,1019.12
2016-01-23T05:54:30.974Z,1019.16
2016-01-23T05:55:31.024Z,1019.24
2016-01-23T05:56:31.089Z,1019.28
2016-01-23T05:57:31.144Z,1019.24
2016-01-23T05:58:31.195Z,1019.23
2016-01-23T05:59:31.246Z,1019.24
2016-01-23T06:00:31.310Z,1019.28
2016-01-23T06:01:31.361Z,1019.32
2016-01-23T06:02:31.412Z,1019.38
2016-01-23T06:03:31.467Z,1019.41
2016-01-23T06:04:31.522Z,1019.42
2016-01-23T06:05:31.587Z,1019.5
2016-01-23T06:06:31.637Z,1019.46
2016-01-23T06:07:31.688Z,1019.45
2016-01-23T06:08:31.753Z,1019.46
2016-01-23T06:09:31.804Z,1019.4
2016-01-23T06:10:31.854Z,1019.42
2016-01-23T06:11:31.919Z,1019.38
2016-01-23T06:12:31.972Z,1019.4
2016-01-23T06:13:32.023Z,1019.41
2016-01-23T06:14:32.087Z,1019.41
2016-01-23T06:15:32.138Z,1019.47
2016-01-23T06:16:32.188Z,1019.48
2016-01-23T06:17:32.254Z,1019.5
2016-01-23T06:18:32.303Z,1019.48
2016-01-23T06:19:32.355Z,1019.53
2016-01-23T06:20:32.420Z,1019.56
2016-01-23T06:21:32.469Z,1019.57
2016-01-23T06:22:32.522Z,1019.59
2016-01-23T06:23:32.590Z,1019.58
2016-01-23T06:24:32.640Z,1019.55
2016-01-23T06:25:32.690Z,1019.58
2016-01-23T06:26:32.757Z,1019.62
2016-01-23T06:27:32.806Z,1019.57
2016-01-23T06:28:32.871Z,1019.62
2016-01-23T06:29:32.922Z,1019.61
2016-01-23T06:30:32.971Z,1019.63
2016-01-23T06:31:33.024Z,1019.67
2016-01-23T06:32:33.074Z,1019.7
2016-01-23T06:33:33.142Z,1019.69
2016-01-23T06:34:33.193Z,1019.75
2016-01-23T06:35:33.246Z,1019.78
2016-01-23T06:36:33.314Z,1019.84
2016-01-23T06:37:33.362Z,1019.81
2016-01-23T06:38:33.414Z,1019.85
2016-01-23T06:39:33.482Z,1019.88
2016-01-23T06:40:33.532Z,1019.93
2016-01-23T06:41:33.582Z,1019.93
2016-01-23T06:42:33.631Z,1019.92
2016-01-23T06:43:33.699Z,1019.93
2016-01-23T06:44:33.748Z,1019.89
2016-01-23T06:45:33.801Z,1019.93
2016-01-23T06:46:33.868Z,1019.95
2016-01-23T06:47:33.917Z,1020.01
2016-01-23T06:48:33.969Z,1020.03
2016-01-23T06:49:34.038Z,1020.05
2016-01-23T06:50:34.088Z,1020.07
2016-01-23T06:51:34.141Z,1020.09
2016-01-23T06:52:34.192Z,1020.11
2016-01-23T06:53:34.260Z,1020.12
2016-01-23T06:54:34.312Z,1020.18
2016-01-23T06:55:34.361Z,1020.25
2016-01-23T06:56:34.426Z,1020.25
2016-01-23T06:57:34.476Z,1020.26
2016-01-23T06:58:34.526Z,1020.28
2016-01-23T06:59:34.592Z,1020.27
2016-01-23T07:00:34.643Z,1020.28
2016-01-23T07:01:34.693Z,1020.33
2016-01-23T07:02:34.758Z,1020.35
2016-01-23T07:03:34.806Z,1020.38
2016-01-23T07:04:34.850Z,1020.41
2016-01-23T07:05:34.913Z,1020.48
2016-01-23T07:06:34.955Z,1020.44
2016-01-23T07:07:35.004Z,1020.45
2016-01-23T07:08:35.050Z,1020.45
2016-01-23T07:09:35.114Z,1020.44
2016-01-23T07:10:35.161Z,1020.4
2016-01-23T07:11:35.224Z,1020.4
2016-01-23T07:12:35.273Z,1020.41
2016-01-23T07:13:35.324Z,1020.48
2016-01-23T07:14:35.373Z,1020.51
2016-01-23T07:15:35.438Z,1020.51
2016-01-23T07:16:35.487Z,1020.51
2016-01-23T07:17:35.539Z,1020.55
2016-01-23T07:18:35.606Z,1020.62
2016-01-23T07:19:35.656Z,1020.59
2016-01-23T07:20:35.708Z,1020.61
2016-01-23T07:21:35.774Z,1020.57
2016-01-23T07:22:35.828Z,1020.59
2016-01-23T07:23:35.877Z,1020.62
2016-01-23T07:24:35.942Z,1020.68
2016-01-23T07:25:35.993Z,1020.69
2016-01-23T07:26:36.044Z,1020.75
2016-01-23T07:27:36.095Z,1020.8
2016-01-23T07:28:36.162Z,1020.81
2016-01-23T07:29:36.211Z,1020.86
2016-01-23T07:30:36.263Z,1020.91
2016-01-23T07:31:36.328Z,1020.91
2016-01-23T07:32:36.380Z,1020.87
2016-01-23T07:33:36.430Z,1020.86
2016-01-23T07:34:36.497Z,1020.89
2016-01-23T07:35:36.547Z,1020.88
2016-01-23T07:36:36.596Z,1020.88
2016-01-23T07:37:36.662Z,1020.94
2016-01-23T07:38:36.713Z,1021.02
2016-01-23T07:39:36.764Z,1021.09
2016-01-23T07:40:36.830Z,1021.14
2016-01-23T07:41:36.881Z,1021.22
2016-01-23T07:42:36.946Z,1021.23
2016-01-23T07:43:36.982Z,1021.17
2016-01-23T07:44:37.048Z,1021.18
2016-01-23T07:45:37.099Z,1021.2
2016-01-23T07:46:37.150Z,1021.18
2016-01-23T07:47:37.216Z,1021.19
2016-01-23T07:48:37.266Z,1021.11
2016-01-23T07:49:37.334Z,1021.15
2016-01-23T07:50:37.385Z,1021.2
2016-01-23T07:51:37.435Z,1021.19
2016-01-23T07:52:37.501Z,1021.21
2016-01-23T07:53:37.550Z,1021.24
2016-01-23T07:54:37.599Z,1021.26
2016-01-23T07:55:37.652Z,1021.32
2016-01-23T07:56:37.721Z,1021.31
2016-01-23T07:57:37.772Z,1021.39
2016-01-23T07:58:37.821Z,1021.43
2016-01-23T07:59:37.887Z,1021.48
2016-01-23T08:00:37.936Z,1021.51
2016-01-23T08:01:37.986Z,1021.52
2016-01-23T08:02:38.051Z,1021.57
2016-01-23T08:03:38.104Z,1021.62
2016-01-23T08:04:38.154Z,1021.69
2016-01-23T08:05:38.220Z,1021.74
2016-01-23T08:06:38.270Z,1021.84
2016-01-23T08:07:38.320Z,1021.89
2016-01-23T08:08:38.387Z,1021.85
2016-01-23T08:09:38.438Z,1021.84
2016-01-23T08:10:38.489Z,1021.85
2016-01-23T08:11:38.556Z,1021.83
2016-01-23T08:12:38.605Z,1021.76
2016-01-23T08:13:38.655Z,1021.74
2016-01-23T08:14:38.721Z,1021.75
2016-01-23T08:15:38.772Z,1021.75
2016-01-23T08:16:38.823Z,1021.83
2016-01-23T08:17:38.889Z,1021.91
2016-01-23T08:18:38.944Z,1021.91
2016-01-23T08:19:38.993Z,1021.98
2016-01-23T08:20:39.043Z,1021.99
2016-01-23T08:21:39.108Z,1022.05
2016-01-23T08:22:39.159Z,1022.08
2016-01-23T08:23:39.209Z,1022.09
2016-01-23T08:24:39.275Z,1022.1
2016-01-23T08:25:39.326Z,1022.07
2016-01-23T08:26:39.392Z,1022.08
2016-01-23T08:27:39.441Z,1022.11
2016-01-23T08:28:39.491Z,1022.12
2016-01-23T08:29:39.544Z,1022.15
2016-01-23T08:30:39.611Z,1022.12
2016-01-23T08:31:39.659Z,1022.21
2016-01-23T08:32:39.711Z,1022.21
2016-01-23T08:33:39.780Z,1022.24
2016-01-23T08:34:39.845Z,1022.28
2016-01-23T08:35:39.878Z,1022.28
2016-01-23T08:36:39.945Z,1022.3
2016-01-23T08:37:39.995Z,1022.39
2016-01-23T08:38:40.045Z,1022.35
2016-01-23T08:39:40.112Z,1022.37
2016-01-23T08:40:40.161Z,1022.41
2016-01-23T08:41:40.212Z,1022.33
2016-01-23T08:42:40.277Z,1022.35
2016-01-23T08:43:40.326Z,1022.34
2016-01-23T08:44:40.378Z,1022.33
2016-01-23T08:45:40.444Z,1022.38
2016-01-23T08:46:40.494Z,1022.36
2016-01-23T08:47:40.552Z,1022.37
2016-01-23T08:48:40.602Z,1022.34
2016-01-23T08:49:40.666Z,1022.43
2016-01-23T08:50:40.731Z,1022.48
2016-01-23T08:51:40.783Z,1022.41
2016-01-23T08:52:40.833Z,1022.43
2016-01-23T08:53:40.887Z,1022.44
2016-01-23T08:54:40.955Z,1022.45
2016-01-23T08:55:41.004Z,1022.42
2016-01-23T08:56:41.054Z,1022.34
2016-01-23T08:57:41.102Z,1022.25
2016-01-23T08:58:41.172Z,1022.23
2016-01-23T08:59:41.222Z,1022.2
2016-01-23T09:00:41.303Z,1022.17
2016-01-23T09:01:41.415Z,1022.13
2016-01-23T09:02:41.385Z,1022.15
2016-01-23T09:03:41.435Z,1022.16
2016-01-23T09:04:41.500Z,1022.23
2016-01-23T09:05:41.648Z,1022.27
2016-01-23T09:06:41.605Z,1022.33
2016-01-23T09:07:41.685Z,1022.44
2016-01-23T09:08:41.735Z,1022.57
2016-01-23T09:09:41.770Z,1022.59
2016-01-23T09:10:41.837Z,1022.59
2016-01-23T09:11:41.885Z,1022.56
2016-01-23T09:12:41.934Z,1022.59
2016-01-23T09:13:41.985Z,1022.57
2016-01-23T09:14:42.055Z,1022.67
2016-01-23T09:15:42.113Z,1022.66
2016-01-23T09:16:42.163Z,1022.72
2016-01-23T09:17:42.213Z,1022.72
2016-01-23T09:18:42.279Z,1022.69
2016-01-23T09:19:42.323Z,1022.69
2016-01-23T09:20:42.387Z,1022.71
2016-01-23T09:21:42.437Z,1022.72
2016-01-23T09:22:42.491Z,1022.69
2016-01-23T09:23:42.544Z,1022.7
2016-01-23T09:24:42.609Z,1022.67
2016-01-23T09:25:42.659Z,1022.72
2016-01-23T09:26:42.711Z,1022.74
2016-01-23T09:27:42.762Z,1022.72
2016-01-23T09:28:42.828Z,1022.77
2016-01-23T09:29:42.878Z,1022.82
2016-01-23T09:30:42.928Z,1022.8
2016-01-23T09:31:42.993Z,1022.87
2016-01-23T09:32:43.044Z,1022.87
2016-01-23T09:33:43.094Z,1022.93
2016-01-23T09:34:43.147Z,1022.9
2016-01-23T09:35:43.199Z,1022.95
2016-01-23T09:36:43.264Z,1022.83
2016-01-23T09:37:43.315Z,1022.84
2016-01-23T09:38:43.366Z,1022.85
2016-01-23T09:39:43.430Z,1022.9
2016-01-23T09:40:43.479Z,1022.97
2016-01-23T09:41:43.533Z,1023.01
2016-01-23T09:42:43.582Z,1023.07
2016-01-23T09:43:43.648Z,1023
2016-01-23T09:44:43.698Z,1022.98
2016-01-23T09:45:43.751Z,1023.01
2016-01-23T09:46:43.800Z,1023.05
2016-01-23T09:47:43.865Z,1023.03
2016-01-23T09:48:43.914Z,1023.03
2016-01-23T09:49:43.966Z,1023.09
2016-01-23T09:50:44.033Z,1023.05
2016-01-23T09:51:44.082Z,1023.05
2016-01-23T09:52:44.133Z,1023.12
2016-01-23T09:53:44.183Z,1023.09
2016-01-23T09:54:44.249Z,1023.13
2016-01-23T09:55:44.299Z,1023.17
2016-01-23T09:56:44.351Z,1023.15
2016-01-23T09:57:44.401Z,1023.14
2016-01-23T09:58:44.469Z,1023.14
2016-01-23T09:59:44.517Z,1023.14
2016-01-23T10:00:44.567Z,1023.16
2016-01-23T10:01:44.617Z,1023.14
2016-01-23T10:02:44.683Z,1023.22
2016-01-23T10:03:44.734Z,1023.22
2016-01-23T10:04:44.801Z,1023.24
2016-01-23T10:05:44.834Z,1023.17
2016-01-23T10:06:44.885Z,1023.2
2016-01-23T10:07:44.951Z,1023.2
2016-01-23T10:08:45.000Z,1023.14
2016-01-23T10:09:45.049Z,1023.17
2016-01-23T10:10:45.114Z,1023.17
2016-01-23T10:11:45.165Z,1023.2
2016-01-23T10:12:45.216Z,1023.23
2016-01-23T10:13:45.269Z,1023.25
2016-01-23T10:14:45.319Z,1023.31
2016-01-23T10:15:45.401Z,1023.28
2016-01-23T10:16:45.435Z,1023.27
2016-01-23T10:17:45.487Z,1023.28
2016-01-23T10:18:45.553Z,1023.31
2016-01-23T10:19:45.588Z,1023.3
2016-01-23T10:20:45.642Z,1023.31
2016-01-23T10:21:45.695Z,1023.34
2016-01-23T10:22:45.759Z,1023.32
2016-01-23T10:23:45.810Z,1023.29
2016-01-23T10:24:45.876Z,1023.31
2016-01-23T10:25:45.927Z,1023.28
2016-01-23T10:26:45.978Z,1023.32
2016-01-23T10:27:46.029Z,1023.24
2016-01-23T10:28:46.080Z,1023.3
2016-01-23T10:29:46.145Z,1023.34
2016-01-23T10:30:46.196Z,1023.31
2016-01-23T10:31:46.248Z,1023.34
2016-01-23T10:32:46.315Z,1023.36
2016-01-23T10:33:46.350Z,1023.37
2016-01-23T10:34:46.431Z,1023.36
2016-01-23T10:35:46.466Z,1023.31
2016-01-23T10:36:46.516Z,1023.34
2016-01-23T10:37:46.581Z,1023.29
2016-01-23T10:38:46.631Z,1023.33
2016-01-23T10:39:46.673Z,1023.28
2016-01-23T10:40:46.787Z,1023.26
2016-01-23T10:41:46.790Z,1023.24
2016-01-23T10:42:46.840Z,1023.26
2016-01-23T10:43:46.890Z,1023.23
2016-01-23T10:44:46.958Z,1023.15
2016-01-23T10:45:47.010Z,1023.14
2016-01-23T10:46:47.061Z,1023.13
2016-01-23T10:47:47.112Z,1023.16
2016-01-23T10:48:47.180Z,1023.17
2016-01-23T10:49:47.229Z,1023.2
2016-01-23T10:50:47.280Z,1023.26
2016-01-23T10:51:47.377Z,1023.24
2016-01-23T10:52:47.395Z,1023.23
2016-01-23T10:53:47.446Z,1023.27
2016-01-23T10:54:47.498Z,1023.33
2016-01-23T10:55:47.562Z,1023.41
2016-01-23T10:56:47.615Z,1023.4
2016-01-23T10:57:47.667Z,1023.44
2016-01-23T10:58:47.716Z,1023.47
2016-01-23T10:59:47.765Z,1023.46
2016-01-23T11:00:47.831Z,1023.45
2016-01-23T11:01:47.882Z,1023.47
2016-01-23T11:02:47.933Z,1023.47
2016-01-23T11:03:48.000Z,1023.48
2016-01-23T11:04:48.051Z,1023.47
2016-01-23T11:05:48.103Z,1023.44
2016-01-23T11:06:48.152Z,1023.46
2016-01-23T11:07:48.219Z,1023.41
2016-01-23T11:08:48.271Z,1023.42
2016-01-23T11:09:48.324Z,1023.43
2016-01-23T11:10:48.376Z,1023.48
2016-01-23T11:11:48.441Z,1023.48
2016-01-23T11:12:48.492Z,1023.47
2016-01-23T11:13:48.543Z,1023.5
2016-01-23T11:14:48.592Z,1023.5
2016-01-23T11:15:48.659Z,1023.46
2016-01-23T11:16:48.709Z,1023.49
2016-01-23T11:17:48.759Z,1023.46
2016-01-23T11:18:48.810Z,1023.47
2016-01-23T11:19:48.877Z,1023.5
2016-01-23T11:20:48.928Z,1023.45
2016-01-23T11:21:48.978Z,1023.55
2016-01-23T11:22:49.136Z,1023.55
2016-01-23T11:23:49.091Z,1023.63
2016-01-23T11:24:49.142Z,1023.69
2016-01-23T11:25:49.194Z,1023.68
2016-01-23T11:26:49.261Z,1023.8
2016-01-23T11:27:49.311Z,1023.77
2016-01-23T11:28:49.360Z,1023.74
2016-01-23T11:29:49.425Z,1023.77
2016-01-23T11:30:49.478Z,1023.73
2016-01-23T11:31:49.529Z,1023.66
2016-01-23T11:32:49.581Z,1023.66
2016-01-23T11:33:49.645Z,1023.62
2016-01-23T11:34:49.698Z,1023.62
2016-01-23T11:35:49.747Z,1023.58
2016-01-23T11:36:49.813Z,1023.6
2016-01-23T11:37:49.863Z,1023.62
2016-01-23T11:38:49.914Z,1023.6
2016-01-23T11:39:49.981Z,1023.63
2016-01-23T11:40:50.031Z,1023.59
2016-01-23T11:41:50.083Z,1023.64
2016-01-23T11:42:50.147Z,1023.64
2016-01-23T11:43:50.217Z,1023.68
2016-01-23T11:44:50.254Z,1023.65
2016-01-23T11:45:50.305Z,1023.76
2016-01-23T11:46:50.356Z,1023.83
2016-01-23T11:47:50.408Z,1023.85
2016-01-23T11:48:50.505Z,1023.81
2016-01-23T11:49:50.523Z,1023.87
2016-01-23T11:50:50.589Z,1023.83
2016-01-23T11:51:50.638Z,1023.86
2016-01-23T11:52:50.701Z,1023.93
2016-01-23T11:53:50.752Z,1023.9
2016-01-23T11:54:50.802Z,1023.9
2016-01-23T11:55:50.853Z,1023.93
2016-01-23T11:56:50.920Z,1023.9
2016-01-23T11:57:50.970Z,1023.86
2016-01-23T11:58:51.019Z,1023.86
2016-01-23T11:59:51.085Z,1023.86
2016-01-23T12:00:51.137Z,1023.9
2016-01-23T12:01:51.187Z,1023.91
2016-01-23T12:02:51.254Z,1023.92
2016-01-23T12:03:51.306Z,1023.9
2016-01-23T12:04:51.355Z,1023.87
2016-01-23T12:05:51.404Z,1023.87
2016-01-23T12:06:51.472Z,1023.96
2016-01-23T12:07:51.524Z,1023.95
2016-01-23T12:08:51.574Z,1024